createdAt,value
2022-12-27T00:00:32.037Z,7.1
2022-12-27T00:01:32.514Z,7.1
2022-12-27T00:02:32.793Z,7.1
2022-12-27T00:03:33.010Z,7.1
2022-12-27T00:04:33.197Z,7.1
2022-12-27T00:05:33.369Z,7.1
2022-12-27T00:06:33.527Z,7.1
2022-12-27T00:07:33.692Z,7.1
2022-12-27T00:08:33.844Z,7.1
2022-12-27T00:09:34.005Z,7.1
2022-12-27T00:10:34.169Z,7
2022-12-27T00:11:34.331Z,7
2022-12-27T00:12:34.496Z,7
2022-12-27T00:13:34.641Z,7
2022-12-27T00:14:34.844Z,7
2022-12-27T00:15:35.007Z,7
2022-12-27T00:16:35.332Z,7
2022-12-27T00:17:35.658Z,7
2022-12-27T00:18:35.804Z,7
2022-12-27T00:19:35.959Z,7
2022-12-27T00:20:36.113Z,6.8
2022-12-27T00:21:36.285Z,6.8
2022-12-27T00:22:36.431Z,6.8
2022-12-27T00:23:36.586Z,6.8
2022-12-27T00:24:36.747Z,6.8
2022-12-27T00:25:36.912Z,6.8
2022-12-27T00:26:37.064Z,6.8
2022-12-27T00:27:37.218Z,6.8
2022-12-27T00:28:37.369Z,6.8
2022-12-27T00:29:37.531Z,6.8
2022-12-27T00:30:37.679Z,6.7
2022-12-27T00:31:37.891Z,6.7
2022-12-27T00:32:38.123Z,6.7
2022-12-27T00:33:38.276Z,6.7
2022-12-27T00:34:38.445Z,6.7
2022-12-27T00:35:38.646Z,6.7
2022-12-27T00:36:38.832Z,6.7
2022-12-27T00:37:38.988Z,6.7
2022-12-27T00:38:39.144Z,6.7
2022-12-27T00:39:39.301Z,6.7
2022-12-27T00:40:39.453Z,6.6
2022-12-27T00:41:39.697Z,6.6
2022-12-27T00:42:39.889Z,6.6
2022-12-27T00:43:40.061Z,6.6
2022-12-27T00:44:40.213Z,6.6
2022-12-27T00:45:40.437Z,6.6
2022-12-27T00:46:40.709Z,6.6
2022-12-27T00:47:40.879Z,6.6
2022-12-27T00:48:41.056Z,6.6
2022-12-27T00:49:41.216Z,6.6
2022-12-27T00:50:41.378Z,6.6
2022-12-27T00:51:41.523Z,6.6
2022-12-27T00:52:41.693Z,6.6
2022-12-27T00:53:41.857Z,6.6
2022-12-27T00:54:42.028Z,6.6
2022-12-27T00:55:42.190Z,6.6
2022-12-27T00:56:42.340Z,6.6
2022-12-27T00:57:42.491Z,6.6
2022-12-27T00:58:42.659Z,6.6
2022-12-27T00:59:42.829Z,6.6
2022-12-27T01:00:43.066Z,6.5
2022-12-27T01:01:43.529Z,6.5
2022-12-27T01:02:43.833Z,6.5
2022-12-27T01:03:44.073Z,6.5
2022-12-27T01:04:44.391Z,6.5
2022-12-27T01:05:44.551Z,6.5
2022-12-27T01:06:44.720Z,6.5
2022-12-27T01:07:44.875Z,6.5
2022-12-27T01:08:45.031Z,6.5
2022-12-27T01:09:45.231Z,6.5
2022-12-27T01:10:45.375Z,6.5
2022-12-27T01:11:45.525Z,6.5
2022-12-27T01:12:45.673Z,6.5
2022-12-27T01:13:45.866Z,6.5
2022-12-27T01:14:46.065Z,6.5
2022-12-27T01:15:46.231Z,6.5
2022-12-27T01:16:46.474Z,6.5
2022-12-27T01:17:46.700Z,6.5
2022-12-27T01:18:46.871Z,6.5
2022-12-27T01:19:47.027Z,6.5
2022-12-27T01:20:47.176Z,6.5
2022-12-27T01:21:47.348Z,6.5
2022-12-27T01:22:47.510Z,6.5
2022-12-27T01:23:47.668Z,6.5
2022-12-27T01:24:47.820Z,6.5
2022-12-27T01:25:48.012Z,6.5
2022-12-27T01:26:48.188Z,6.5
2022-12-27T01:27:48.353Z,6.5
2022-12-27T01:28:48.535Z,6.5
2022-12-27T01:29:48.720Z,6.4
2022-12-27T01:30:48.889Z,6.4
2022-12-27T01:31:49.238Z,6.4
2022-12-27T01:32:49.471Z,6.4
2022-12-27T01:33:49.665Z,6.4
2022-12-27T01:34:49.855Z,6.4
2022-12-27T01:35:50.023Z,6.4
2022-12-27T01:36:50.187Z,6.4
2022-12-27T01:37:50.336Z,6.4
2022-12-27T01:38:50.524Z,6.4
2022-12-27T01:39:50.674Z,6.4
2022-12-27T01:40:50.824Z,6.4
2022-12-27T01:41:50.985Z,6.4
2022-12-27T01:42:51.163Z,6.4
2022-12-27T01:43:51.319Z,6.4
2022-12-27T01:44:51.470Z,6.4
2022-12-27T01:45:51.654Z,6.4
2022-12-27T01:46:51.908Z,6.4
2022-12-27T01:47:52.055Z,6.4
2022-12-27T01:48:52.225Z,6.4
2022-12-27T01:49:52.547Z,6.4
2022-12-27T01:50:52.703Z,6.4
2022-12-27T01:51:52.868Z,6.4
2022-12-27T01:52:53.019Z,6.4
2022-12-27T01:53:53.196Z,6.4
2022-12-27T01:54:53.362Z,6.4
2022-12-27T01:55:53.517Z,6.4
2022-12-27T01:56:53.678Z,6.4
2022-12-27T01:57:53.844Z,6.4
2022-12-27T01:58:54.005Z,6.4
2022-12-27T01:59:54.152Z,6.4
2022-12-27T02:00:54.425Z,6.4
2022-12-27T02:01:54.901Z,6.4
2022-12-27T02:02:55.301Z,6.4
2022-12-27T02:03:55.510Z,6.4
2022-12-27T02:04:55.678Z,6.4
2022-12-27T02:05:55.877Z,6.4
2022-12-27T02:06:56.028Z,6.4
2022-12-27T02:07:56.212Z,6.4
2022-12-27T02:08:56.362Z,6.4
2022-12-27T02:09:56.536Z,6.3
2022-12-27T02:10:56.691Z,6.3
2022-12-27T02:11:57.057Z,6.3
2022-12-27T02:12:57.288Z,6.3
2022-12-27T02:13:57.474Z,6.3
2022-12-27T02:14:57.624Z,6.3
2022-12-27T02:15:57.797Z,6.3
2022-12-27T02:16:58.163Z,6.3
2022-12-27T02:17:58.644Z,6.3
2022-12-27T02:18:58.796Z,6.3
2022-12-27T02:19:58.962Z,6.3
2022-12-27T02:20:59.116Z,6.3
2022-12-27T02:21:59.271Z,6.3
2022-12-27T02:22:59.424Z,6.3
2022-12-27T02:23:59.696Z,6.3
2022-12-27T02:25:00.300Z,6.3
2022-12-27T02:26:00.712Z,6.3
2022-12-27T02:27:00.874Z,6.3
2022-12-27T02:28:01.031Z,6.3
2022-12-27T02:29:01.179Z,6.3
2022-12-27T02:30:01.374Z,6.2
2022-12-27T02:31:01.601Z,6.2
2022-12-27T02:32:01.850Z,6.2
2022-12-27T02:33:02.030Z,6.2
2022-12-27T02:34:02.193Z,6.2
2022-12-27T02:35:02.409Z,6.2
2022-12-27T02:36:02.564Z,6.2
2022-12-27T02:37:02.730Z,6.2
2022-12-27T02:38:02.945Z,6.2
2022-12-27T02:39:03.119Z,6.2
2022-12-27T02:40:03.287Z,6.1
2022-12-27T02:41:03.444Z,6.1
2022-12-27T02:42:03.624Z,6.1
2022-12-27T02:43:03.791Z,6.1
2022-12-27T02:44:03.944Z,6.1
2022-12-27T02:45:04.122Z,6.1
2022-12-27T02:46:04.324Z,6.1
2022-12-27T02:47:04.572Z,6.1
2022-12-27T02:48:04.750Z,6.1
2022-12-27T02:49:04.892Z,6.1
2022-12-27T02:50:05.111Z,6
2022-12-27T02:51:05.295Z,6
2022-12-27T02:52:05.441Z,6
2022-12-27T02:53:05.639Z,6
2022-12-27T02:54:05.882Z,6
2022-12-27T02:55:06.054Z,6
2022-12-27T02:56:06.199Z,6
2022-12-27T02:57:06.346Z,6
2022-12-27T02:58:06.514Z,6
2022-12-27T02:59:06.656Z,6
2022-12-27T03:00:06.818Z,6
2022-12-27T03:01:07.072Z,6
2022-12-27T03:02:07.749Z,6
2022-12-27T03:03:08.326Z,6
2022-12-27T03:04:08.526Z,6
2022-12-27T03:05:08.704Z,6
2022-12-27T03:06:08.879Z,6
2022-12-27T03:07:09.095Z,6
2022-12-27T03:08:09.260Z,6
2022-12-27T03:09:09.427Z,6
2022-12-27T03:10:09.613Z,5.9
2022-12-27T03:11:09.782Z,5.9
2022-12-27T03:12:09.943Z,5.9
2022-12-27T03:13:10.102Z,5.9
2022-12-27T03:14:10.249Z,5.9
2022-12-27T03:15:10.394Z,5.9
2022-12-27T03:16:10.812Z,5.9
2022-12-27T03:17:11.082Z,5.9
2022-12-27T03:18:11.255Z,5.9
2022-12-27T03:19:11.416Z,5.9
2022-12-27T03:20:11.601Z,5.9
2022-12-27T03:21:11.749Z,5.9
2022-12-27T03:22:11.905Z,5.9
2022-12-27T03:23:12.080Z,5.9
2022-12-27T03:24:12.251Z,5.9
2022-12-27T03:25:12.401Z,5.9
2022-12-27T03:26:12.553Z,5.9
2022-12-27T03:27:12.721Z,5.9
2022-12-27T03:28:12.903Z,5.9
2022-12-27T03:29:13.051Z,5.9
2022-12-27T03:30:13.200Z,5.8
2022-12-27T03:31:13.515Z,5.8
2022-12-27T03:32:13.763Z,5.8
2022-12-27T03:33:13.923Z,5.8
2022-12-27T03:34:14.074Z,5.8
2022-12-27T03:35:14.233Z,5.8
2022-12-27T03:36:14.389Z,5.8
2022-12-27T03:37:14.538Z,5.8
2022-12-27T03:38:14.701Z,5.8
2022-12-27T03:39:14.889Z,5.8
2022-12-27T03:40:15.078Z,5.8
2022-12-27T03:41:15.236Z,5.8
2022-12-27T03:42:15.387Z,5.8
2022-12-27T03:43:15.599Z,5.8
2022-12-27T03:44:15.770Z,5.8
2022-12-27T03:45:15.923Z,5.8
2022-12-27T03:46:16.333Z,5.8
2022-12-27T03:47:16.616Z,5.8
2022-12-27T03:48:16.775Z,5.8
2022-12-27T03:49:16.949Z,5.8
2022-12-27T03:50:17.137Z,5.7
2022-12-27T03:51:17.375Z,5.7
2022-12-27T03:52:17.608Z,5.7
2022-12-27T03:53:17.749Z,5.7
2022-12-27T03:54:17.906Z,5.7
2022-12-27T03:55:18.054Z,5.7
2022-12-27T03:56:18.211Z,5.7
2022-12-27T03:57:18.370Z,5.7
2022-12-27T03:58:18.531Z,5.7
2022-12-27T03:59:18.696Z,5.7
2022-12-27T04:00:18.865Z,5.6
2022-12-27T04:01:19.192Z,5.6
2022-12-27T04:02:19.999Z,5.6
2022-12-27T04:03:20.731Z,5.6
2022-12-27T04:04:21.004Z,5.6
2022-12-27T04:05:21.170Z,5.6
2022-12-27T04:06:21.365Z,5.6
2022-12-27T04:07:21.531Z,5.6
2022-12-27T04:08:21.693Z,5.6
2022-12-27T04:09:21.857Z,5.6
2022-12-27T04:10:22.035Z,5.5
2022-12-27T04:11:22.220Z,5.5
2022-12-27T04:12:22.370Z,5.5
2022-12-27T04:13:22.559Z,5.5
2022-12-27T04:14:22.727Z,5.5
2022-12-27T04:15:22.899Z,5.5
2022-12-27T04:16:23.260Z,5.5
2022-12-27T04:17:23.526Z,5.5
2022-12-27T04:18:23.684Z,5.5
2022-12-27T04:19:23.839Z,5.5
2022-12-27T04:20:24.008Z,5.4
2022-12-27T04:21:24.151Z,5.4
2022-12-27T04:22:24.323Z,5.4
2022-12-27T04:23:24.507Z,5.4
2022-12-27T04:24:24.667Z,5.4
2022-12-27T04:25:24.819Z,5.4
2022-12-27T04:26:25.002Z,5.4
2022-12-27T04:27:25.173Z,5.4
2022-12-27T04:28:25.353Z,5.4
2022-12-27T04:29:25.504Z,5.4
2022-12-27T04:30:25.650Z,5.2
2022-12-27T04:31:25.965Z,5.2
2022-12-27T04:32:26.158Z,5.2
2022-12-27T04:33:26.340Z,5.2
2022-12-27T04:34:26.524Z,5.2
2022-12-27T04:35:26.679Z,5.2
2022-12-27T04:36:26.840Z,5.2
2022-12-27T04:37:26.999Z,5.2
2022-12-27T04:38:27.161Z,5.2
2022-12-27T04:39:27.335Z,5.2
2022-12-27T04:40:27.502Z,5.2
2022-12-27T04:41:27.664Z,5.2
2022-12-27T04:42:27.816Z,5.2
2022-12-27T04:43:27.975Z,5.2
2022-12-27T04:44:28.135Z,5.2
2022-12-27T04:45:28.306Z,5.2
2022-12-27T04:46:28.559Z,5.2
2022-12-27T04:47:28.795Z,5.2
2022-12-27T04:48:28.942Z,5.2
2022-12-27T04:49:29.099Z,5.2
2022-12-27T04:50:29.278Z,5.1
2022-12-27T04:51:29.433Z,5.1
2022-12-27T04:52:29.593Z,5.1
2022-12-27T04:53:29.759Z,5.1
2022-12-27T04:54:29.922Z,5.1
2022-12-27T04:55:30.090Z,5.1
2022-12-27T04:56:30.238Z,5.1
2022-12-27T04:57:30.414Z,5.1
2022-12-27T04:58:30.591Z,5.1
2022-12-27T04:59:30.758Z,5.1
2022-12-27T05:00:30.933Z,5.1
2022-12-27T05:01:31.369Z,5.1
2022-12-27T05:02:32.123Z,5.1
2022-12-27T05:03:32.822Z,5.1
2022-12-27T05:04:33.055Z,5.1
2022-12-27T05:05:33.214Z,5.1
2022-12-27T05:06:33.392Z,5.1
2022-12-27T05:07:33.566Z,5.1
2022-12-27T05:08:33.750Z,5.1
2022-12-27T05:09:33.927Z,5.1
2022-12-27T05:10:34.090Z,5.1
2022-12-27T05:11:34.244Z,5.1
2022-12-27T05:12:34.433Z,5.1
2022-12-27T05:13:34.590Z,5.1
2022-12-27T05:14:34.742Z,5.1
2022-12-27T05:15:34.905Z,5.1
2022-12-27T05:16:35.190Z,5.1
2022-12-27T05:17:35.486Z,5.1
2022-12-27T05:18:35.682Z,5.1
2022-12-27T05:19:35.844Z,5.1
2022-12-27T05:20:36.001Z,5.1
2022-12-27T05:21:36.160Z,5.1
2022-12-27T05:22:36.303Z,5.1
2022-12-27T05:23:36.477Z,5.1
2022-12-27T05:24:36.647Z,5.1
2022-12-27T05:25:36.803Z,5.1
2022-12-27T05:26:36.961Z,5.1
2022-12-27T05:27:37.143Z,5.1
2022-12-27T05:28:37.293Z,5.1
2022-12-27T05:29:37.445Z,5.1
2022-12-27T05:30:37.608Z,5.1
2022-12-27T05:31:37.901Z,5.1
2022-12-27T05:32:38.185Z,5.1
2022-12-27T05:33:38.330Z,5.1
2022-12-27T05:34:38.474Z,5.1
2022-12-27T05:35:38.633Z,5.1
2022-12-27T05:36:38.786Z,5.1
2022-12-27T05:37:38.935Z,5.1
2022-12-27T05:38:39.098Z,5.1
2022-12-27T05:39:39.254Z,5.1
2022-12-27T05:40:39.407Z,5.1
2022-12-27T05:41:39.575Z,5.1
2022-12-27T05:42:39.729Z,5.1
2022-12-27T05:43:39.893Z,5.1
2022-12-27T05:44:40.052Z,5.1
2022-12-27T05:45:40.224Z,5.1
2022-12-27T05:46:40.459Z,5.1
2022-12-27T05:47:40.682Z,5.1
2022-12-27T05:48:40.871Z,5.1
2022-12-27T05:49:41.036Z,5.1
2022-12-27T05:50:41.200Z,5.2
2022-12-27T05:51:41.356Z,5.2
2022-12-27T05:52:41.691Z,5.2
2022-12-27T05:53:41.834Z,5.2
2022-12-27T05:54:42.107Z,5.2
2022-12-27T05:55:42.283Z,5.2
2022-12-27T05:56:42.445Z,5.2
2022-12-27T05:57:42.608Z,5.2
2022-12-27T05:58:42.765Z,5.2
2022-12-27T05:59:42.905Z,5.2
2022-12-27T06:00:43.086Z,5.2
2022-12-27T06:01:43.540Z,5.2
2022-12-27T06:02:44.546Z,5.2
2022-12-27T06:03:44.952Z,5.2
2022-12-27T06:04:45.099Z,5.2
2022-12-27T06:05:45.250Z,5.2
2022-12-27T06:06:45.425Z,5.2
2022-12-27T06:07:45.614Z,5.2
2022-12-27T06:08:45.773Z,5.2
2022-12-27T06:09:45.939Z,5.2
2022-12-27T06:10:46.096Z,5.2
2022-12-27T06:11:46.268Z,5.2
2022-12-27T06:12:46.458Z,5.2
2022-12-27T06:13:46.630Z,5.2
2022-12-27T06:14:46.774Z,5.2
2022-12-27T06:15:46.974Z,5.2
2022-12-27T06:16:47.207Z,5.2
2022-12-27T06:17:47.456Z,5.2
2022-12-27T06:18:47.672Z,5.2
2022-12-27T06:19:56.762Z,5.2
2022-12-27T06:20:57.605Z,5.3
2022-12-27T06:21:57.762Z,5.3
2022-12-27T06:22:57.905Z,5.3
2022-12-27T06:23:58.080Z,5.3
2022-12-27T06:24:58.263Z,5.3
2022-12-27T06:25:58.416Z,5.3
2022-12-27T06:26:58.579Z,5.3
2022-12-27T06:27:58.730Z,5.3
2022-12-27T06:28:58.877Z,5.3
2022-12-27T06:29:59.039Z,5.3
2022-12-27T06:30:59.217Z,5.3
2022-12-27T06:31:59.471Z,5.3
2022-12-27T06:32:59.825Z,5.3
2022-12-27T06:33:59.981Z,5.3
2022-12-27T06:35:00.181Z,5.3
2022-12-27T06:36:00.332Z,5.3
2022-12-27T06:37:00.501Z,5.3
2022-12-27T06:38:00.674Z,5.3
2022-12-27T06:39:00.860Z,5.3
2022-12-27T06:40:01.028Z,5.3
2022-12-27T06:41:01.175Z,5.3
2022-12-27T06:42:01.330Z,5.3
2022-12-27T06:43:02.333Z,5.3
2022-12-27T06:44:02.500Z,5.3
2022-12-27T06:45:02.642Z,5.3
2022-12-27T06:46:03.024Z,5.3
2022-12-27T06:47:03.437Z,5.3
2022-12-27T06:48:03.620Z,5.3
2022-12-27T06:49:03.772Z,5.3
2022-12-27T06:50:03.921Z,5.4
2022-12-27T06:51:04.095Z,5.4
2022-12-27T06:52:04.265Z,5.4
2022-12-27T06:53:04.416Z,5.4
2022-12-27T06:54:04.572Z,5.4
2022-12-27T06:55:04.794Z,5.4
2022-12-27T06:56:04.948Z,5.4
2022-12-27T06:57:05.096Z,5.4
2022-12-27T06:58:05.251Z,5.4
2022-12-27T06:59:05.401Z,5.4
2022-12-27T07:00:05.577Z,5.4
2022-12-27T07:01:05.768Z,5.4
2022-12-27T07:02:06.419Z,5.4
2022-12-27T07:03:06.968Z,5.4
2022-12-27T07:04:07.183Z,5.4
2022-12-27T07:05:07.329Z,5.4
2022-12-27T07:06:07.506Z,5.4
2022-12-27T07:07:15.924Z,5.4
2022-12-27T07:08:16.348Z,5.5
2022-12-27T07:09:16.514Z,5.5
2022-12-27T07:10:16.664Z,5.5
2022-12-27T07:11:16.820Z,5.5
2022-12-27T07:12:17.097Z,5.5
2022-12-27T07:13:17.382Z,5.5
2022-12-27T07:14:17.536Z,5.5
2022-12-27T07:15:17.690Z,5.5
2022-12-27T07:16:17.911Z,5.5
2022-12-27T07:17:18.119Z,5.5
2022-12-27T07:18:18.289Z,5.5
2022-12-27T07:19:18.456Z,5.5
2022-12-27T07:20:18.598Z,5.6
2022-12-27T07:21:18.782Z,5.6
2022-12-27T07:22:18.961Z,5.6
2022-12-27T07:23:19.677Z,5.6
2022-12-27T07:24:19.824Z,5.6
2022-12-27T07:25:20.008Z,5.6
2022-12-27T07:26:20.212Z,5.6
2022-12-27T07:27:20.379Z,5.6
2022-12-27T07:28:20.530Z,5.6
2022-12-27T07:29:20.681Z,5.6
2022-12-27T07:30:20.848Z,5.5
2022-12-27T07:31:21.215Z,5.5
2022-12-27T07:32:21.483Z,5.5
2022-12-27T07:33:21.645Z,5.5
2022-12-27T07:34:21.795Z,5.5
2022-12-27T07:35:21.960Z,5.5
2022-12-27T07:36:22.118Z,5.5
2022-12-27T07:37:22.289Z,5.5
2022-12-27T07:38:22.437Z,5.5
2022-12-27T07:39:22.588Z,5.5
2022-12-27T07:40:22.741Z,5.5
2022-12-27T07:41:22.909Z,5.5
2022-12-27T07:42:23.083Z,5.5
2022-12-27T07:43:23.259Z,5.5
2022-12-27T07:44:23.437Z,5.5
2022-12-27T07:45:23.600Z,5.5
2022-12-27T07:46:23.771Z,5.5
2022-12-27T07:47:23.944Z,5.5
2022-12-27T07:48:24.110Z,5.5
2022-12-27T07:49:24.257Z,5.5
2022-12-27T07:50:24.414Z,5.5
2022-12-27T07:51:24.571Z,5.5
2022-12-27T07:52:24.743Z,5.5
2022-12-27T07:53:24.907Z,5.5
2022-12-27T07:54:25.076Z,5.5
2022-12-27T07:55:25.241Z,5.5
2022-12-27T07:56:27.094Z,5.5
2022-12-27T07:57:27.536Z,5.5
2022-12-27T07:58:27.697Z,5.5
2022-12-27T07:59:27.850Z,5.5
2022-12-27T08:00:28.132Z,5.6
2022-12-27T08:01:28.825Z,5.6
2022-12-27T08:02:29.717Z,5.6
2022-12-27T08:03:30.115Z,5.6
2022-12-27T08:04:30.355Z,5.6
2022-12-27T08:05:30.513Z,5.6
2022-12-27T08:06:30.677Z,5.6
2022-12-27T08:07:30.830Z,5.6
2022-12-27T08:08:30.983Z,5.6
2022-12-27T08:09:31.162Z,5.6
2022-12-27T08:10:31.322Z,5.6
2022-12-27T08:11:31.490Z,5.6
2022-12-27T08:12:31.649Z,5.6
2022-12-27T08:13:31.818Z,5.6
2022-12-27T08:14:31.968Z,5.6
2022-12-27T08:15:32.157Z,5.6
2022-12-27T08:16:32.402Z,5.6
2022-12-27T08:17:32.649Z,5.6
2022-12-27T08:18:32.810Z,5.6
2022-12-27T08:19:32.966Z,5.6
2022-12-27T08:20:33.125Z,5.7
2022-12-27T08:21:33.278Z,5.7
2022-12-27T08:22:33.431Z,5.7
2022-12-27T08:23:33.597Z,5.7
2022-12-27T08:24:33.754Z,5.7
2022-12-27T08:25:33.949Z,5.7
2022-12-27T08:26:34.134Z,5.7
2022-12-27T08:27:34.288Z,5.7
2022-12-27T08:28:34.431Z,5.7
2022-12-27T08:29:34.587Z,5.7
2022-12-27T08:30:34.795Z,5.9
2022-12-27T08:31:34.993Z,5.9
2022-12-27T08:32:35.146Z,5.9
2022-12-27T08:33:35.293Z,5.9
2022-12-27T08:34:35.463Z,5.9
2022-12-27T08:35:54.482Z,5.9
2022-12-27T08:36:56.960Z,5.9
2022-12-27T08:37:57.461Z,5.9
2022-12-27T08:38:57.625Z,5.9
2022-12-27T08:40:03.326Z,5.9
2022-12-27T08:41:03.646Z,5.9
2022-12-27T08:42:03.815Z,5.9
2022-12-27T08:43:03.975Z,5.9
2022-12-27T08:44:04.127Z,5.9
2022-12-27T08:45:04.289Z,5.9
2022-12-27T08:46:04.490Z,5.9
2022-12-27T08:47:04.726Z,5.9
2022-12-27T08:48:05.044Z,5.9
2022-12-27T08:49:05.238Z,5.9
2022-12-27T08:50:05.407Z,5.9
2022-12-27T08:51:13.789Z,5.9
2022-12-27T08:52:24.891Z,5.9
2022-12-27T08:53:25.046Z,5.9
2022-12-27T08:54:25.193Z,5.9
2022-12-27T08:55:25.375Z,5.9
2022-12-27T08:56:25.557Z,5.9
2022-12-27T08:57:25.761Z,5.9
2022-12-27T08:58:25.910Z,5.9
2022-12-27T08:59:26.062Z,5.9
2022-12-27T09:00:26.358Z,6
2022-12-27T09:01:26.794Z,6
2022-12-27T09:02:27.283Z,6
2022-12-27T09:03:27.637Z,6
2022-12-27T09:04:27.845Z,6
2022-12-27T09:05:28.011Z,6
2022-12-27T09:06:28.163Z,6
2022-12-27T09:07:28.314Z,6
2022-12-27T09:08:28.478Z,6
2022-12-27T09:09:28.632Z,6
2022-12-27T09:10:28.794Z,6
2022-12-27T09:11:28.955Z,6
2022-12-27T09:12:29.112Z,6
2022-12-27T09:13:29.292Z,6
2022-12-27T09:14:29.470Z,6
2022-12-27T09:15:29.787Z,6
2022-12-27T09:16:30.134Z,6
2022-12-27T09:17:30.322Z,6
2022-12-27T09:18:30.491Z,6
2022-12-27T09:19:30.656Z,6
2022-12-27T09:20:30.804Z,6.1
2022-12-27T09:21:30.967Z,6.1
2022-12-27T09:22:31.119Z,6.1
2022-12-27T09:23:31.287Z,6.1
2022-12-27T09:24:31.445Z,6.1
2022-12-27T09:25:31.715Z,6.1
2022-12-27T09:26:31.956Z,6.1
2022-12-27T09:27:32.151Z,6.1
2022-12-27T09:28:32.317Z,6.1
2022-12-27T09:29:32.479Z,6.1
2022-12-27T09:30:32.649Z,6.1
2022-12-27T09:31:33.034Z,6.1
2022-12-27T09:32:33.370Z,6.1
2022-12-27T09:33:33.535Z,6.1
2022-12-27T09:34:33.849Z,6.1
2022-12-27T09:35:38.785Z,6.1
2022-12-27T09:36:39.005Z,6.2
2022-12-27T09:37:39.159Z,6.2
2022-12-27T09:38:39.347Z,6.2
2022-12-27T09:39:39.497Z,6.2
2022-12-27T09:40:39.661Z,6.2
2022-12-27T09:42:59.797Z,6.2
2022-12-27T09:44:16.352Z,6.3
2022-12-27T09:45:16.510Z,6.3
2022-12-27T09:46:16.763Z,6.3
2022-12-27T09:47:16.983Z,6.3
2022-12-27T09:48:17.142Z,6.3
2022-12-27T09:49:17.318Z,6.3
2022-12-27T09:50:17.487Z,6.5
2022-12-27T09:51:17.641Z,6.5
2022-12-27T09:52:17.793Z,6.5
2022-12-27T09:53:17.938Z,6.5
2022-12-27T09:54:18.126Z,6.5
2022-12-27T09:55:18.471Z,6.5
2022-12-27T09:56:18.662Z,6.5
2022-12-27T09:57:20.916Z,6.5
2022-12-27T09:58:21.222Z,6.5
2022-12-27T09:59:21.396Z,6.5
2022-12-27T10:00:36.026Z,7
2022-12-27T10:01:39.218Z,7
2022-12-27T10:02:39.813Z,7
2022-12-27T10:03:40.121Z,7
2022-12-27T10:05:20.658Z,7
2022-12-27T10:06:22.933Z,7.3
2022-12-27T10:07:23.084Z,7.3
2022-12-27T10:08:23.228Z,7.3
2022-12-27T10:09:23.399Z,7.3
2022-12-27T10:10:23.578Z,7.5
2022-12-27T10:11:23.746Z,7.5
2022-12-27T10:12:31.959Z,7.5
2022-12-27T10:13:32.401Z,7.7
2022-12-27T10:14:32.564Z,7.7
2022-12-27T10:15:32.739Z,7.7
2022-12-27T10:16:32.919Z,7.7
2022-12-27T10:17:33.071Z,7.7
2022-12-27T10:18:33.222Z,7.7
2022-12-27T10:19:33.432Z,7.7
2022-12-27T10:20:33.596Z,7.9
2022-12-27T10:21:33.769Z,7.9
2022-12-27T10:22:33.941Z,7.9
2022-12-27T10:23:34.093Z,7.9
2022-12-27T10:24:34.237Z,7.9
2022-12-27T10:25:34.452Z,7.9
2022-12-27T10:26:34.759Z,7.9
2022-12-27T10:27:34.922Z,7.9
2022-12-27T10:28:35.125Z,7.9
2022-12-27T10:29:35.271Z,7.9
2022-12-27T10:30:35.423Z,8
2022-12-27T10:31:35.780Z,8
2022-12-27T10:32:36.058Z,8
2022-12-27T10:33:36.222Z,8
2022-12-27T10:34:36.382Z,8
2022-12-27T10:35:36.536Z,8
2022-12-27T10:36:36.694Z,8
2022-12-27T10:37:36.847Z,8
2022-12-27T10:38:37.008Z,8
2022-12-27T10:39:37.175Z,8
2022-12-27T10:40:37.337Z,7.9
2022-12-27T10:41:37.503Z,7.9
2022-12-27T10:42:37.649Z,7.9
2022-12-27T10:43:37.797Z,7.9
2022-12-27T10:44:37.960Z,7.9
2022-12-27T10:45:38.324Z,7.9
2022-12-27T10:46:38.684Z,7.9
2022-12-27T10:47:38.908Z,7.9
2022-12-27T10:49:20.895Z,7.9
2022-12-27T10:50:22.353Z,8.39
2022-12-27T10:51:22.509Z,8.39
2022-12-27T10:52:22.739Z,8.39
2022-12-27T10:53:23.011Z,8.39
2022-12-27T10:54:23.183Z,8.39
2022-12-27T10:55:23.334Z,8.39
2022-12-27T10:56:23.482Z,8.39
2022-12-27T10:57:23.624Z,8.39
2022-12-27T10:58:23.780Z,8.39
2022-12-27T10:59:23.948Z,8.39
2022-12-27T11:00:24.367Z,9.3
2022-12-27T11:01:25.113Z,9.3
2022-12-27T11:02:26.109Z,9.3
2022-12-27T11:03:26.430Z,9.3
2022-12-27T11:04:26.596Z,9.3
2022-12-27T11:05:26.766Z,9.3
2022-12-27T11:06:26.919Z,9.3
2022-12-27T11:07:27.068Z,9.3
2022-12-27T11:08:27.225Z,9.3
2022-12-27T11:09:27.405Z,10.3
2022-12-27T11:10:27.571Z,10.3
2022-12-27T11:11:27.716Z,10.3
2022-12-27T11:12:27.871Z,10.3
2022-12-27T11:13:28.032Z,10.3
2022-12-27T11:14:28.188Z,10.3
2022-12-27T11:15:28.349Z,10.3
2022-12-27T11:16:28.565Z,10.3
2022-12-27T11:17:28.812Z,10.3
2022-12-27T11:18:28.970Z,10.3
2022-12-27T11:19:29.127Z,11.2
2022-12-27T11:20:29.301Z,11.2
2022-12-27T11:21:29.481Z,11.2
2022-12-27T11:22:29.635Z,11.2
2022-12-27T11:23:29.821Z,11.2
2022-12-27T11:24:29.979Z,11.2
2022-12-27T11:25:30.128Z,11.2
2022-12-27T11:26:30.309Z,11.2
2022-12-27T11:27:30.483Z,11.2
2022-12-27T11:28:30.724Z,11.2
2022-12-27T11:29:30.884Z,11.3
2022-12-27T11:30:31.045Z,11.3
2022-12-27T11:31:31.286Z,11.3
2022-12-27T11:32:31.624Z,11.3
2022-12-27T11:33:31.775Z,11.3
2022-12-27T11:34:31.923Z,11.3
2022-12-27T11:35:32.091Z,11.3
2022-12-27T11:36:32.296Z,11.3
2022-12-27T11:37:32.521Z,11.3
2022-12-27T11:38:32.678Z,11.3
2022-12-27T11:39:32.821Z,10.6
2022-12-27T11:40:32.971Z,10.6
2022-12-27T11:41:33.130Z,10.6
2022-12-27T11:42:33.285Z,10.6
2022-12-27T11:43:33.459Z,10.6
2022-12-27T11:44:33.632Z,10.6
2022-12-27T11:45:33.795Z,10.6
2022-12-27T11:46:33.967Z,10.6
2022-12-27T11:47:34.361Z,10.6
2022-12-27T11:48:34.503Z,10.6
2022-12-27T11:49:34.652Z,9.8
2022-12-27T11:50:34.828Z,9.8
2022-12-27T11:51:34.972Z,9.8
2022-12-27T11:52:35.166Z,9.8
2022-12-27T11:53:35.311Z,9.8
2022-12-27T11:54:35.479Z,9.8
2022-12-27T11:55:35.655Z,9.8
2022-12-27T11:56:35.823Z,9.8
2022-12-27T11:57:35.977Z,9.8
2022-12-27T11:58:36.136Z,9.8
2022-12-27T11:59:36.298Z,9.1
2022-12-27T12:00:36.459Z,9.1
2022-12-27T12:01:36.703Z,9.1
2022-12-27T12:02:37.056Z,9.1
2022-12-27T12:03:37.366Z,9.1
2022-12-27T12:04:37.689Z,9.1
2022-12-27T12:05:38.159Z,9.1
2022-12-27T12:06:38.323Z,9.1
2022-12-27T12:07:38.476Z,9.1
2022-12-27T12:08:38.627Z,9.1
2022-12-27T12:09:38.776Z,8.5
2022-12-27T12:10:38.932Z,8.5
2022-12-27T12:11:39.084Z,8.5
2022-12-27T12:12:39.232Z,8.5
2022-12-27T12:13:39.420Z,8.5
2022-12-27T12:14:39.576Z,8.5
2022-12-27T12:15:39.719Z,8.5
2022-12-27T12:16:39.928Z,8.5
2022-12-27T12:17:40.221Z,8.5
2022-12-27T12:18:40.412Z,8.5
2022-12-27T12:19:40.565Z,8.1
2022-12-27T12:20:48.722Z,8.1
2022-12-27T12:21:51.385Z,8
2022-12-27T12:22:51.543Z,8
2022-12-27T12:23:51.709Z,8
2022-12-27T12:24:51.866Z,8
2022-12-27T12:25:52.037Z,8
2022-12-27T12:26:56.195Z,8
2022-12-27T12:27:56.370Z,7.8
2022-12-27T12:29:00.202Z,7.8
2022-12-27T12:30:01.260Z,7.7
2022-12-27T12:31:01.409Z,7.7
2022-12-27T12:32:01.713Z,7.7
2022-12-27T12:33:01.944Z,7.7
2022-12-27T12:34:02.109Z,7.7
2022-12-27T12:35:02.295Z,7.7
2022-12-27T12:36:02.445Z,7.7
2022-12-27T12:37:02.614Z,7.7
2022-12-27T12:38:02.770Z,7.7
2022-12-27T12:39:02.939Z,7.6
2022-12-27T12:40:03.089Z,7.6
2022-12-27T12:41:03.271Z,7.6
2022-12-27T12:42:03.429Z,7.6
2022-12-27T12:43:03.609Z,7.6
2022-12-27T12:44:03.800Z,7.6
2022-12-27T12:45:03.968Z,7.6
2022-12-27T12:46:04.268Z,7.6
2022-12-27T12:47:04.494Z,7.6
2022-12-27T12:48:04.643Z,7.6
2022-12-27T12:49:04.826Z,7.5
2022-12-27T12:50:13.525Z,7.5
2022-12-27T12:51:14.068Z,7.4
2022-12-27T12:52:14.228Z,7.4
2022-12-27T12:53:14.386Z,7.4
2022-12-27T12:54:14.530Z,7.4
2022-12-27T12:55:14.698Z,7.4
2022-12-27T12:56:14.851Z,7.4
2022-12-27T12:57:15.050Z,7.4
2022-12-27T12:58:15.213Z,7.4
2022-12-27T12:59:15.377Z,7.4
2022-12-27T13:00:15.562Z,7.4
2022-12-27T13:01:15.858Z,7.4
2022-12-27T13:02:16.619Z,7.4
2022-12-27T13:03:17.384Z,7.4
2022-12-27T13:04:17.588Z,7.4
2022-12-27T13:05:17.787Z,7.4
2022-12-27T13:06:17.968Z,7.4
2022-12-27T13:07:18.112Z,7.4
2022-12-27T13:08:18.271Z,7.4
2022-12-27T13:09:18.431Z,7.3
2022-12-27T13:10:18.580Z,7.3
2022-12-27T13:11:18.736Z,7.3
2022-12-27T13:12:18.906Z,7.3
2022-12-27T13:13:19.073Z,7.3
2022-12-27T13:14:19.224Z,7.3
2022-12-27T13:15:19.385Z,7.3
2022-12-27T13:16:19.665Z,7.3
2022-12-27T13:17:20.022Z,7.3
2022-12-27T13:18:30.097Z,7.3
2022-12-27T13:19:31.085Z,7.3
2022-12-27T13:20:31.239Z,7.3
2022-12-27T13:21:31.390Z,7.3
2022-12-27T13:22:31.544Z,7.3
2022-12-27T13:23:31.712Z,7.3
2022-12-27T13:24:31.876Z,7.3
2022-12-27T13:25:32.047Z,7.3
2022-12-27T13:26:32.184Z,7.3
2022-12-27T13:27:32.335Z,7.3
2022-12-27T13:28:32.509Z,7.3
2022-12-27T13:29:32.650Z,7.3
2022-12-27T13:30:32.948Z,7.3
2022-12-27T13:31:33.216Z,7.3
2022-12-27T13:32:33.385Z,7.3
2022-12-27T13:33:33.557Z,7.3
2022-12-27T13:34:33.706Z,7.3
2022-12-27T13:35:33.848Z,7.3
2022-12-27T13:36:34.028Z,7.3
2022-12-27T13:37:34.209Z,7.3
2022-12-27T13:38:34.365Z,7.3
2022-12-27T13:39:34.519Z,7.3
2022-12-27T13:40:34.676Z,7.3
2022-12-27T13:41:34.839Z,7.3
2022-12-27T13:42:34.984Z,7.3
2022-12-27T13:43:35.134Z,7.3
2022-12-27T13:44:35.282Z,7.3
2022-12-27T13:45:35.451Z,7.3
2022-12-27T13:46:43.172Z,7.3
2022-12-27T13:47:43.579Z,7.3
2022-12-27T13:48:43.734Z,7.3
2022-12-27T13:49:43.882Z,7.3
2022-12-27T13:50:44.050Z,7.3
2022-12-27T13:51:44.274Z,7.3
2022-12-27T13:52:44.446Z,7.3
2022-12-27T13:53:44.596Z,7.3
2022-12-27T13:54:44.740Z,7.3
2022-12-27T13:55:44.900Z,7.3
2022-12-27T13:56:55.624Z,7.3
2022-12-27T13:57:56.155Z,7.2